Dewitt, New York
Current Conditions -  °F | °C
As of 11:54 PM on Thursday 30 Oct 2014 (Local Time) from KSYR Reporting Station
Broken Clouds Broken Clouds  
Wind Chill: 42°   Ceiling: 4800
Heat Index: 42°   Visibility: 10mi
Dew Point: 37°   Wind: 0mph
Humidity: 82%   Direction: NA
Pressure: 30.03"   Gusts: NA
Location:  43.0412°N, 76.074°W
Report Text: KSYR 310354Z 00000KT 10SM BKN048 BKN250 06/03 A3003 RMK AO2 SLP167 BKN048 V SCT T00560028
Loading
Personal Weather Stations






























Interactive Weather Map
Tropical Storm Tracking
New forecast layout! Learn more

10-Day Weather Forecast

Advertisements
Track Severe Weather on mobile